createdAt,value
2018-12-15T00:00:57.266Z,4.46
2018-12-15T00:03:36.087Z,4.34
2018-12-15T00:06:08.208Z,4.50
2018-12-15T00:08:40.376Z,4.28
2018-12-15T00:11:11.319Z,3.90
2018-12-15T00:13:42.154Z,4.31
2018-12-15T00:16:15.235Z,4.52
2018-12-15T00:19:01.336Z,4.14
2018-12-15T00:21:39.716Z,4.10
2018-12-15T00:24:11.827Z,4.21
2018-12-15T00:26:43.576Z,3.98
2018-12-15T00:29:23.301Z,2.92
2018-12-15T00:32:09.163Z,3.41
2018-12-15T00:34:43.192Z,3.43
2018-12-15T00:37:15.301Z,4.08
2018-12-15T00:39:53.054Z,3.75
2018-12-15T00:42:32.773Z,3.51
2018-12-15T00:45:04.117Z,4.22
2018-12-15T00:47:53.505Z,3.49
2018-12-15T00:50:33.756Z,3.60
2018-12-15T00:53:13.087Z,3.87
2018-12-15T00:55:44.327Z,3.41
2018-12-15T00:58:23.713Z,3.97
2018-12-15T01:01:10.787Z,3.62
2018-12-15T01:03:50.574Z,3.85
2018-12-15T01:06:41.538Z,3.56
2018-12-15T01:09:19.393Z,3.41
2018-12-15T01:11:53.323Z,3.17
2018-12-15T01:14:31.022Z,3.15
2018-12-15T01:17:02.151Z,2.89
2018-12-15T01:19:53.012Z,3.26
2018-12-15T01:22:30.756Z,3.55
2018-12-15T01:25:02.006Z,4.01
2018-12-15T01:27:35.168Z,4.08
2018-12-15T01:30:13.819Z,3.47
2018-12-15T01:32:47.205Z,3.42
2018-12-15T01:35:19.270Z,3.49
2018-12-15T01:37:58.806Z,3.80
2018-12-15T01:40:36.806Z,3.78
2018-12-15T01:43:17.306Z,3.57
2018-12-15T01:45:48.838Z,3.57
2018-12-15T01:48:18.793Z,3.50
2018-12-15T01:50:56.609Z,3.95
2018-12-15T01:53:34.511Z,4.22
2018-12-15T01:56:06.466Z,3.98
2018-12-15T01:58:41.201Z,4.25
2018-12-15T02:01:15.211Z,4.26
2018-12-15T02:03:46.392Z,4.05
2018-12-15T02:06:20.331Z,3.57
2018-12-15T02:08:58.938Z,4.35
2018-12-15T02:11:36.797Z,4.36
2018-12-15T02:14:08.257Z,3.67
2018-12-15T02:16:39.406Z,3.40
2018-12-15T02:19:10.426Z,3.83
2018-12-15T02:21:43.162Z,3.85
2018-12-15T02:24:21.668Z,3.99
2018-12-15T02:26:53.910Z,4.00
2018-12-15T02:29:23.777Z,3.65
2018-12-15T02:31:53.751Z,3.89
2018-12-15T02:34:25.312Z,3.69
2018-12-15T02:36:58.309Z,3.89
2018-12-15T02:39:36.031Z,3.83
2018-12-15T02:42:14.035Z,4.05
2018-12-15T02:44:51.767Z,4.00
2018-12-15T02:47:29.780Z,3.76
2018-12-15T02:50:00.812Z,3.73
2018-12-15T02:52:32.781Z,4.00
2018-12-15T02:55:04.740Z,4.19
2018-12-15T02:57:35.915Z,4.23
2018-12-15T03:00:07.037Z,3.69
2018-12-15T03:02:38.101Z,3.83
2018-12-15T03:05:11.926Z,3.66
2018-12-15T03:07:49.920Z,3.82
2018-12-15T03:10:21.127Z,3.47
2018-12-15T03:12:52.250Z,4.05
2018-12-15T03:15:24.115Z,3.73
2018-12-15T03:18:02.960Z,4.30
2018-12-15T03:20:32.910Z,3.43
2018-12-15T03:23:03.934Z,3.87
2018-12-15T03:25:36.241Z,3.46
2018-12-15T03:28:13.970Z,4.18
2018-12-15T03:30:48.197Z,4.06
2018-12-15T03:33:19.360Z,4.09
2018-12-15T03:35:53.377Z,4.04
2018-12-15T03:38:31.203Z,3.40
2018-12-15T03:41:09.353Z,3.41
2018-12-15T03:43:47.362Z,3.83
2018-12-15T03:46:19.678Z,3.59
2018-12-15T03:48:58.171Z,3.22
2018-12-15T03:51:33.194Z,3.41
2018-12-15T03:54:11.022Z,3.55
2018-12-15T03:56:45.160Z,3.45
2018-12-15T03:59:23.157Z,3.55
2018-12-15T04:01:54.401Z,3.60
2018-12-15T04:04:25.753Z,4.05
2018-12-15T04:06:57.497Z,4.06
2018-12-15T04:12:21.390Z,3.76
2018-12-15T04:14:52.449Z,3.55
2018-12-15T04:17:30.330Z,3.80
2018-12-15T04:20:01.571Z,3.62
2018-12-15T04:22:42.939Z,2.97
2018-12-15T04:25:14.507Z,3.63
2018-12-15T04:27:48.461Z,3.86
2018-12-15T04:30:26.223Z,3.63
2018-12-15T04:32:57.910Z,3.77
2018-12-15T04:35:30.845Z,3.53
2018-12-15T04:38:11.697Z,3.67
2018-12-15T04:40:43.182Z,3.62
2018-12-15T04:43:21.553Z,3.93
2018-12-15T04:45:52.855Z,3.65
2018-12-15T04:48:31.334Z,4.01
2018-12-15T04:51:11.374Z,4.03
2018-12-15T04:53:41.907Z,4.30
2018-12-15T04:56:13.833Z,3.61
2018-12-15T04:58:54.464Z,3.33
2018-12-15T05:01:34.682Z,3.68
2018-12-15T05:04:08.865Z,3.67
2018-12-15T05:06:41.927Z,3.60
2018-12-15T05:09:27.200Z,2.76
2018-12-15T05:12:05.518Z,3.40
2018-12-15T05:14:44.424Z,3.29
2018-12-15T05:17:15.681Z,3.08
2018-12-15T05:19:53.635Z,3.26
2018-12-15T05:22:28.786Z,3.87
2018-12-15T05:25:00.020Z,3.86
2018-12-15T05:27:39.692Z,3.54
2018-12-15T05:30:11.614Z,3.99
2018-12-15T05:32:50.056Z,3.95
2018-12-15T05:35:22.269Z,3.55
2018-12-15T05:37:53.202Z,3.88
2018-12-15T05:40:32.722Z,3.89
2018-12-15T05:43:15.042Z,3.41
2018-12-15T05:45:47.530Z,3.38
2018-12-15T05:48:26.295Z,3.68
2018-12-15T05:51:05.138Z,3.44
2018-12-15T05:56:31.234Z,3.43
2018-12-15T05:59:10.818Z,3.78
2018-12-15T06:01:43.253Z,3.95
2018-12-15T06:04:30.301Z,3.23
2018-12-15T06:07:01.402Z,3.89
2018-12-15T06:09:43.560Z,3.61
2018-12-15T06:12:14.233Z,3.37
2018-12-15T06:14:53.733Z,3.90
2018-12-15T06:17:32.679Z,3.95
2018-12-15T06:20:12.520Z,3.73
2018-12-15T06:22:47.536Z,3.76
2018-12-15T06:25:20.562Z,3.53
2018-12-15T06:27:51.690Z,3.94
2018-12-15T06:30:25.187Z,3.45
2018-12-15T06:33:04.722Z,3.76
2018-12-15T06:35:35.969Z,3.38
2018-12-15T06:41:09.362Z,3.51
2018-12-15T06:43:53.888Z,3.39
2018-12-15T06:46:26.647Z,3.58
2018-12-15T06:49:06.373Z,3.39
2018-12-15T06:51:45.301Z,3.84
2018-12-15T06:54:24.546Z,3.59
2018-12-15T06:57:00.262Z,3.78
2018-12-15T06:59:32.576Z,3.52
2018-12-15T07:02:10.275Z,3.24
2018-12-15T07:04:48.095Z,3.67
2018-12-15T07:07:27.886Z,3.86
2018-12-15T07:10:00.098Z,3.99
2018-12-15T07:12:29.726Z,3.97
2018-12-15T07:15:09.388Z,4.27
2018-12-15T07:17:49.252Z,3.69
2018-12-15T07:20:21.458Z,3.39
2018-12-15T07:22:52.474Z,3.55
2018-12-15T07:25:26.452Z,3.81
2018-12-15T07:27:57.426Z,3.57
2018-12-15T07:30:42.966Z,3.36
2018-12-15T07:33:22.226Z,3.39
2018-12-15T07:35:53.750Z,4.03
2018-12-15T07:38:32.076Z,4.09
2018-12-15T07:41:11.827Z,4.04
2018-12-15T07:43:45.782Z,4.19
2018-12-15T07:46:18.767Z,4.38
2018-12-15T07:49:01.053Z,3.44
2018-12-15T07:51:41.298Z,3.35
2018-12-15T07:54:13.574Z,3.78
2018-12-15T07:56:48.621Z,3.37
2018-12-15T07:59:27.726Z,3.54
2018-12-15T08:02:06.948Z,3.56
2018-12-15T08:04:46.212Z,3.61
2018-12-15T08:07:23.977Z,3.98
2018-12-15T08:10:04.378Z,4.38
2018-12-15T08:12:43.054Z,3.84
2018-12-15T08:15:15.426Z,4.25
2018-12-15T08:17:55.936Z,4.06
2018-12-15T08:20:28.224Z,4.27
2018-12-15T08:23:08.053Z,3.76
2018-12-15T08:25:39.232Z,3.85
2018-12-15T08:28:17.054Z,3.41
2018-12-15T08:30:56.208Z,3.85
2018-12-15T08:33:28.548Z,3.35
2018-12-15T08:36:01.600Z,2.80
2018-12-15T08:38:31.656Z,3.09
2018-12-15T08:41:18.823Z,2.87
2018-12-15T08:43:58.164Z,2.92
2018-12-15T08:46:38.079Z,2.97
2018-12-15T08:49:09.345Z,3.03
2018-12-15T08:51:44.927Z,2.77
2018-12-15T08:54:17.200Z,3.86
2018-12-15T08:56:52.659Z,3.39
2018-12-15T08:59:31.605Z,3.47
2018-12-15T09:02:04.746Z,3.57
2018-12-15T09:04:35.815Z,3.43
2018-12-15T09:07:08.682Z,3.53
2018-12-15T09:09:39.932Z,3.50
2018-12-15T09:12:15.322Z,3.61
2018-12-15T09:14:48.443Z,3.23
2018-12-15T09:17:20.450Z,3.24
2018-12-15T09:20:01.077Z,3.62
2018-12-15T09:22:36.162Z,2.98
2018-12-15T09:25:13.984Z,3.52
2018-12-15T09:27:45.297Z,3.24
2018-12-15T09:30:26.622Z,3.29
2018-12-15T09:32:57.923Z,3.90
2018-12-15T09:35:30.726Z,3.68
2018-12-15T09:38:11.328Z,4.13
2018-12-15T09:40:53.254Z,4.21
2018-12-15T09:43:34.804Z,3.73
2018-12-15T09:46:07.868Z,3.50
2018-12-15T09:48:47.226Z,3.73
2018-12-15T09:51:18.530Z,4.37
2018-12-15T09:53:57.212Z,3.65
2018-12-15T09:56:30.324Z,3.35
2018-12-15T09:59:01.368Z,3.32
2018-12-15T10:01:40.276Z,3.63
2018-12-15T10:04:12.568Z,4.00
2018-12-15T10:06:45.167Z,4.12
2018-12-15T10:09:23.728Z,4.04
2018-12-15T10:11:56.142Z,3.07
2018-12-15T10:14:33.998Z,3.73
2018-12-15T10:17:06.290Z,3.92
2018-12-15T10:19:45.083Z,3.64
2018-12-15T10:22:17.411Z,3.44
2018-12-15T10:24:55.228Z,3.61
2018-12-15T10:27:34.036Z,3.38
2018-12-15T10:30:18.496Z,3.42
2018-12-15T10:33:04.995Z,2.80
2018-12-15T10:35:37.138Z,3.44
2018-12-15T10:38:09.235Z,3.40
2018-12-15T10:40:47.685Z,2.84
2018-12-15T10:46:13.594Z,3.38
2018-12-15T10:48:54.882Z,3.06
2018-12-15T10:51:33.275Z,2.88
2018-12-15T10:54:11.142Z,3.47
2018-12-15T10:56:44.046Z,3.12
2018-12-15T10:59:24.579Z,2.87
2018-12-15T11:02:10.094Z,3.40
2018-12-15T11:04:50.721Z,3.44
2018-12-15T11:07:24.796Z,3.39
2018-12-15T11:10:03.689Z,3.77
2018-12-15T11:12:35.985Z,3.43
2018-12-15T11:15:14.467Z,3.43
2018-12-15T11:17:50.520Z,3.82
2018-12-15T11:20:30.378Z,3.10
2018-12-15T11:23:10.022Z,3.17
2018-12-15T11:25:44.065Z,3.47
2018-12-15T11:28:22.622Z,2.71
2018-12-15T11:30:55.283Z,3.06
2018-12-15T11:33:34.743Z,3.35
2018-12-15T11:36:08.821Z,3.33
2018-12-15T11:38:51.071Z,3.18
2018-12-15T11:41:27.524Z,2.68
2018-12-15T11:43:58.720Z,2.98
2018-12-15T11:46:30.901Z,3.05
2018-12-15T11:49:11.506Z,3.29
2018-12-15T11:51:51.603Z,2.86
2018-12-15T11:54:27.572Z,3.16
2018-12-15T11:57:01.066Z,3.25
2018-12-15T11:59:40.863Z,3.99
2018-12-15T12:02:14.095Z,3.65
2018-12-15T12:07:46.596Z,2.76
2018-12-15T12:10:17.463Z,2.99
2018-12-15T12:12:58.809Z,2.99
2018-12-15T12:15:34.043Z,3.02
2018-12-15T12:18:06.243Z,3.48
2018-12-15T12:20:45.061Z,2.69
2018-12-15T12:23:25.196Z,2.88
2018-12-15T12:25:57.678Z,3.85
2018-12-15T12:28:28.616Z,2.79
2018-12-15T12:31:08.314Z,4.86
2018-12-15T12:33:39.488Z,3.59
2018-12-15T12:36:14.494Z,3.46
2018-12-15T12:38:46.716Z,3.07
2018-12-15T12:41:28.968Z,3.86
2018-12-15T12:44:10.694Z,3.14
2018-12-15T12:46:46.225Z,2.57
2018-12-15T12:49:30.479Z,2.57
2018-12-15T12:52:04.666Z,2.92
2018-12-15T12:54:44.724Z,2.73
2018-12-15T12:57:19.758Z,2.85
2018-12-15T12:59:54.466Z,2.70
2018-12-15T13:02:27.711Z,3.16
2018-12-15T13:04:58.756Z,3.78
2018-12-15T13:07:46.416Z,3.78
2018-12-15T13:10:25.183Z,3.79
2018-12-15T13:13:04.116Z,3.61
2018-12-15T13:15:36.217Z,3.41
2018-12-15T13:18:06.977Z,4.18
2018-12-15T13:20:46.659Z,3.31
2018-12-15T13:23:26.573Z,3.38
2018-12-15T13:26:01.345Z,3.80
2018-12-15T13:28:50.369Z,3.67
2018-12-15T13:31:25.108Z,3.63
2018-12-15T13:34:00.254Z,3.55
2018-12-15T13:36:33.327Z,3.99
2018-12-15T13:39:14.826Z,3.98
2018-12-15T13:41:53.701Z,3.64
2018-12-15T13:47:17.052Z,3.24
2018-12-15T13:49:56.259Z,3.22
2018-12-15T13:52:26.719Z,3.18
2018-12-15T13:55:03.601Z,3.06
2018-12-15T13:57:50.930Z,3.15
2018-12-15T14:00:27.244Z,3.22
2018-12-15T14:03:05.986Z,3.53
2018-12-15T14:05:38.083Z,3.26
2018-12-15T14:08:17.606Z,3.17
2018-12-15T14:10:52.639Z,3.85
2018-12-15T14:13:34.963Z,3.58
2018-12-15T14:16:07.415Z,3.18
2018-12-15T14:18:47.358Z,3.21
2018-12-15T14:21:19.640Z,3.07
2018-12-15T14:23:57.536Z,3.20
2018-12-15T14:26:31.738Z,3.33
2018-12-15T14:29:04.312Z,3.18
2018-12-15T14:31:37.527Z,3.14
2018-12-15T14:34:16.356Z,3.10
2018-12-15T14:36:48.315Z,3.27
2018-12-15T14:39:29.076Z,3.18
2018-12-15T14:42:00.224Z,4.74
2018-12-15T14:44:39.446Z,3.70
2018-12-15T14:47:11.647Z,2.91
2018-12-15T14:49:54.756Z,3.41
2018-12-15T14:52:33.847Z,3.27
2018-12-15T14:55:07.969Z,3.19
2018-12-15T14:57:40.282Z,2.96
2018-12-15T15:00:15.180Z,3.01
2018-12-15T15:02:47.399Z,2.96
2018-12-15T15:05:19.126Z,3.27
2018-12-15T15:07:57.521Z,3.20
2018-12-15T15:10:32.379Z,2.64
2018-12-15T15:13:07.983Z,2.86
2018-12-15T15:15:41.216Z,2.67
2018-12-15T15:18:13.291Z,3.36
2018-12-15T15:20:47.153Z,3.06
2018-12-15T15:23:18.247Z,3.11
2018-12-15T15:25:49.091Z,2.94
2018-12-15T15:28:21.255Z,3.12
2018-12-15T15:31:00.796Z,2.88
2018-12-15T15:33:40.720Z,2.49
2018-12-15T15:36:13.126Z,2.50
2018-12-15T15:38:58.249Z,3.18
2018-12-15T15:41:37.894Z,3.25
2018-12-15T15:44:10.256Z,2.86
2018-12-15T15:46:40.216Z,2.90
2018-12-15T15:49:19.007Z,3.14
2018-12-15T15:54:53.413Z,2.75
2018-12-15T15:57:26.063Z,2.87
2018-12-15T16:00:07.851Z,2.46
2018-12-15T16:02:55.823Z,2.18
2018-12-15T16:05:29.027Z,2.55
2018-12-15T16:07:59.944Z,2.56
2018-12-15T16:10:40.371Z,2.40
2018-12-15T16:13:21.577Z,2.53
2018-12-15T16:15:53.933Z,2.48
2018-12-15T16:18:29.474Z,3.31
2018-12-15T16:21:08.364Z,2.84
2018-12-15T16:23:43.214Z,2.61
2018-12-15T16:26:15.283Z,2.79
2018-12-15T16:28:56.522Z,2.46
2018-12-15T16:31:35.760Z,2.98
2018-12-15T16:34:14.940Z,2.30
2018-12-15T16:36:47.036Z,2.26
2018-12-15T16:39:29.333Z,2.24
2018-12-15T16:42:14.081Z,2.14
2018-12-15T16:44:48.529Z,2.39
2018-12-15T16:47:27.730Z,2.38
2018-12-15T16:50:02.706Z,2.70
2018-12-15T16:52:41.850Z,2.29
2018-12-15T16:55:14.421Z,2.66
2018-12-15T16:57:45.106Z,2.75
2018-12-15T17:00:16.159Z,3.21
2018-12-15T17:02:51.673Z,3.11
2018-12-15T17:05:22.737Z,2.34
2018-12-15T17:07:55.025Z,2.54
2018-12-15T17:10:34.705Z,2.88
2018-12-15T17:13:06.924Z,2.52
2018-12-15T17:15:37.822Z,2.67
2018-12-15T17:18:16.676Z,2.64
2018-12-15T17:20:58.583Z,2.82
2018-12-15T17:23:30.347Z,2.55
2018-12-15T17:26:01.204Z,2.78
2018-12-15T17:28:31.003Z,2.52
2018-12-15T17:31:10.692Z,2.31
2018-12-15T17:33:42.802Z,2.45
2018-12-15T17:36:19.232Z,2.94
2018-12-15T17:38:51.350Z,2.70
2018-12-15T17:41:30.338Z,2.49
2018-12-15T17:44:06.582Z,2.55
2018-12-15T17:46:45.422Z,2.60
2018-12-15T17:49:23.319Z,2.44
2018-12-15T17:51:56.760Z,2.63
2018-12-15T17:54:26.811Z,2.57
2018-12-15T17:56:56.651Z,2.58
2018-12-15T17:59:27.461Z,2.83
2018-12-15T18:02:14.138Z,2.18
2018-12-15T18:04:44.848Z,2.34
2018-12-15T18:07:19.480Z,2.71
2018-12-15T18:09:51.767Z,2.47
2018-12-15T18:12:30.319Z,2.02
2018-12-15T18:15:03.874Z,2.00
2018-12-15T18:17:34.710Z,1.67
2018-12-15T18:20:07.649Z,1.90
2018-12-15T18:22:44.443Z,2.60
2018-12-15T18:25:25.938Z,2.10
2018-12-15T18:28:04.359Z,1.82
2018-12-15T18:30:49.452Z,2.07
2018-12-15T18:36:16.396Z,2.46
2018-12-15T18:38:59.014Z,2.74
2018-12-15T18:41:32.838Z,2.01
2018-12-15T18:44:06.642Z,2.40
2018-12-15T18:46:42.228Z,2.08
2018-12-15T18:49:18.230Z,1.94
2018-12-15T18:51:58.273Z,2.13
2018-12-15T18:54:38.119Z,2.30
2018-12-15T18:57:10.589Z,1.65
2018-12-15T18:59:43.375Z,1.96
2018-12-15T19:02:16.408Z,2.51
2018-12-15T19:04:57.408Z,2.62
2018-12-15T19:07:29.268Z,2.46
2018-12-15T19:10:07.997Z,2.42
2018-12-15T19:12:38.799Z,2.71
2018-12-15T19:15:17.423Z,2.44
2018-12-15T19:17:56.134Z,2.42
2018-12-15T19:20:30.081Z,2.37
2018-12-15T19:23:01.003Z,2.24
2018-12-15T19:25:33.203Z,2.27
2018-12-15T19:28:07.608Z,2.03
2018-12-15T19:30:42.570Z,1.65
2018-12-15T19:33:14.558Z,2.13
2018-12-15T19:35:46.829Z,2.13
2018-12-15T19:38:27.584Z,1.78
2018-12-15T19:40:57.656Z,2.07
2018-12-15T19:43:36.485Z,2.05
2018-12-15T19:46:08.633Z,2.10
2018-12-15T19:48:50.792Z,1.99
2018-12-15T19:51:32.901Z,1.97
2018-12-15T19:54:07.337Z,1.82
2018-12-15T19:56:38.442Z,1.91
2018-12-15T19:59:12.191Z,1.61
2018-12-15T20:01:51.274Z,1.77
2018-12-15T20:04:29.109Z,1.57
2018-12-15T20:07:03.287Z,1.72
2018-12-15T20:09:42.003Z,1.87
2018-12-15T20:12:20.866Z,1.90
2018-12-15T20:15:06.459Z,1.70
2018-12-15T20:17:45.750Z,2.01
2018-12-15T20:20:18.051Z,1.78
2018-12-15T20:22:58.462Z,2.02
2018-12-15T20:25:31.011Z,1.89
2018-12-15T20:30:57.663Z,1.83
2018-12-15T20:33:28.703Z,1.63
2018-12-15T20:36:00.675Z,1.95
2018-12-15T20:38:39.475Z,1.69
2018-12-15T20:41:23.838Z,1.72
2018-12-15T20:43:54.684Z,1.44
2018-12-15T20:46:27.637Z,1.62
2018-12-15T20:49:08.291Z,1.84
2018-12-15T20:51:42.959Z,1.55
2018-12-15T20:54:29.430Z,1.50
2018-12-15T20:57:02.184Z,1.56
2018-12-15T20:59:43.366Z,2.09
2018-12-15T21:02:16.223Z,1.57
2018-12-15T21:04:55.978Z,1.31
2018-12-15T21:07:27.299Z,1.83
2018-12-15T21:10:04.781Z,1.39
2018-12-15T21:12:40.030Z,2.09
2018-12-15T21:15:19.958Z,1.55
2018-12-15T21:17:57.891Z,1.55
2018-12-15T21:20:37.597Z,1.29
2018-12-15T21:23:16.765Z,1.30
2018-12-15T21:25:52.273Z,1.20
2018-12-15T21:28:40.951Z,1.63
2018-12-15T21:31:20.606Z,1.36
2018-12-15T21:33:56.561Z,1.17
2018-12-15T21:36:29.804Z,1.18
2018-12-15T21:39:05.242Z,1.31
2018-12-15T21:41:39.710Z,1.36
2018-12-15T21:44:10.770Z,1.46
2018-12-15T21:46:43.924Z,1.63
2018-12-15T21:49:14.910Z,1.45
2018-12-15T21:51:56.964Z,1.30
2018-12-15T21:54:35.881Z,1.50
2018-12-15T21:57:08.074Z,1.41
2018-12-15T21:59:42.099Z,1.41
2018-12-15T22:02:28.694Z,1.49
2018-12-15T22:05:04.589Z,1.51
2018-12-15T22:10:44.003Z,1.87
2018-12-15T22:13:23.543Z,1.83
2018-12-15T22:15:55.691Z,1.87
2018-12-15T22:18:34.702Z,1.57
2018-12-15T22:21:06.821Z,1.92
2018-12-15T22:23:45.720Z,1.58
2018-12-15T22:26:18.922Z,1.73
2018-12-15T22:28:49.866Z,1.30
2018-12-15T22:31:20.921Z,1.44
2018-12-15T22:33:59.829Z,1.53
2018-12-15T22:36:32.004Z,1.59
2018-12-15T22:39:09.980Z,1.77
2018-12-15T22:41:44.800Z,1.53
2018-12-15T22:44:18.136Z,1.71
2018-12-15T22:46:52.180Z,1.52
2018-12-15T22:49:30.559Z,1.79
2018-12-15T22:52:17.509Z,1.55
2018-12-15T22:54:50.102Z,2.16
2018-12-15T22:57:22.934Z,2.13
2018-12-15T23:00:01.577Z,1.80
2018-12-15T23:02:41.137Z,1.77
2018-12-15T23:07:51.100Z,1.70
2018-12-15T23:10:29.933Z,1.95
2018-12-15T23:13:08.851Z,2.00
2018-12-15T23:15:41.439Z,1.90
2018-12-15T23:18:21.019Z,1.56
2018-12-15T23:20:56.310Z,1.64
2018-12-15T23:23:35.875Z,1.53
2018-12-15T23:26:14.620Z,1.79
2018-12-15T23:31:46.172Z,1.70
2018-12-15T23:34:21.116Z,1.56
2018-12-15T23:36:53.027Z,1.68
2018-12-15T23:39:31.697Z,1.73
2018-12-15T23:42:02.694Z,1.54
2018-12-15T23:44:47.793Z,1.69
2018-12-15T23:47:19.462Z,1.77
2018-12-15T23:50:00.769Z,1.98
2018-12-15T23:52:31.620Z,1.89
2018-12-15T23:55:11.424Z,2.00
2018-12-15T23:57:44.650Z,1.59
